Time;durP1;ratioP1;P1;durP2;ratioP2;P2;SDS_P1;SDS_P2;PMS_P1;PMS_P2;Temp;Humidity;BMP_temperature;BMP_pressure;BME280_temperature;BME280_humidity;BME280_pressure;Samples;Min_cycle;Max_cycle;Signal;HPM_P1;HPM_P2
2021/10/05 00:00:16;;;;;;;;;;;;;;;14.74;69.92;100886.63;1392240;88;20279;-90
2021/10/05 00:02:42;;;;;;;;;;;;;;;14.65;71.20;100883.12;1399221;87;20338;-91
2021/10/05 00:05:08;;;;;;;;;;;;;;;14.63;70.25;100881.11;1400094;88;20249;-91
2021/10/05 00:07:35;;;;;;;;;;;;;;;14.59;70.49;100881.11;1399921;88;20324;-91
2021/10/05 00:10:01;;;;;;;;;;;;;;;14.56;71.15;100886.77;1399876;88;20346;-91
2021/10/05 00:12:27;;;;;;;;;;;;;;;14.52;70.65;100879.57;1399826;88;20272;-90
2021/10/05 00:14:53;;;;;;;;;;;;;;;14.51;71.89;100886.38;1400196;88;20278;-89
2021/10/05 00:17:19;;;;;;;;;;;;;;;14.48;71.15;100880.05;1399745;88;20302;-91
2021/10/05 00:19:46;;;;;;;;;;;;;;;14.44;72.17;100876.38;1399918;88;20353;-89
2021/10/05 00:22:14;;;;;;;;;;;;;;;14.42;72.51;100881.02;1399941;88;20822;-90
2021/10/05 00:24:40;;;;;;;;;;;;;;;14.41;72.03;100882.03;1400030;88;20806;-90
2021/10/05 00:27:06;;;;;;;;;;;;;;;14.40;71.88;100879.01;1400367;88;20360;-90
2021/10/05 00:29:32;;;;;;;;;;;;;;;14.39;72.16;100878.68;1400509;88;20271;-90
2021/10/05 00:31:58;;;;;;;;;;;;;;;14.39;72.57;100883.18;1399531;88;20352;-89
2021/10/05 00:34:24;;;;;;;;;;;;;;;14.37;73.34;100883.33;1399734;88;20323;-90
2021/10/05 00:36:50;;;;;;;;;;;;;;;14.35;73.36;100885.31;1399733;88;20264;-89
2021/10/05 00:39:16;;;;;;;;;;;;;;;14.33;73.61;100891.31;1399842;88;20256;-89
2021/10/05 00:41:42;;;;;;;;;;;;;;;14.30;74.62;100888.97;1400025;88;20813;-89
2021/10/05 00:44:08;;;;;;;;;;;;;;;14.27;74.94;100895.09;1399902;88;20294;-89
2021/10/05 00:46:34;;;;;;;;;;;;;;;14.24;74.41;100896.24;1399788;88;20271;-89
2021/10/05 00:49:00;;;;;;;;;;;;;;;14.21;74.69;100889.91;1400150;88;20249;-89
2021/10/05 00:51:27;;;;;;;;;;;;;;;14.21;74.37;100889.91;1399879;88;20754;-89
2021/10/05 00:53:53;;;;;;;;;;;;;;;14.23;72.45;100891.92;1400112;88;20286;-90
2021/10/05 00:56:22;;;;;;;;;;;;;;;14.23;75.01;100897.25;1399594;88;20353;-89
2021/10/05 00:58:49;;;;;;;;;;;;;;;14.25;73.82;100897.93;1400035;88;20308;-89
2021/10/05 01:01:16;;;;;;;;;;;;;;;14.29;74.04;100897.94;1399237;88;20768;-89
2021/10/05 01:03:43;;;;;;;;;;;;;;;14.33;73.05;100895.31;1392136;88;20359;-89
2021/10/05 01:06:09;;;;;;;;;;;;;;;14.38;73.31;100894.81;1392041;88;20947;-89
2021/10/05 01:08:35;;;;;;;;;;;;;;;14.40;74.91;100888.83;1392294;88;20372;-90
2021/10/05 01:11:01;;;;;;;;;;;;;;;14.43;73.21;100885.84;1392244;88;20793;-92
2021/10/05 01:13:28;;;;;;;;;;;;;;;14.43;74.83;100889.34;1392233;88;20302;-91
2021/10/05 01:15:54;;;;;;;;;;;;;;;14.39;74.71;100894.66;1392024;89;20271;-91
2021/10/05 01:18:20;;;;;;;;;;;;;;;14.36;74.10;100897.64;1391927;88;20264;-91
2021/10/05 01:21:00;;;;;;;;;;;;;;;14.35;74.12;100894.63;1392148;88;20287;-91
2021/10/05 01:23:27;;;;;;;;;;;;;;;14.36;73.77;100889.66;1392135;88;20919;-91
2021/10/05 01:25:53;;;;;;;;;;;;;;;14.32;74.87;100882.97;1392127;88;20287;-91
2021/10/05 01:28:20;;;;;;;;;;;;;;;14.28;75.24;100878.97;1392085;88;20339;-90
2021/10/05 01:30:46;;;;;;;;;;;;;;;14.21;73.93;100876.12;1392051;89;20271;-91
2021/10/05 01:33:12;;;;;;;;;;;;;;;14.18;75.12;100879.59;1392085;88;20319;-89
2021/10/05 01:35:38;;;;;;;;;;;;;;;14.13;73.88;100877.92;1391970;89;20756;-91
2021/10/05 01:38:04;;;;;;;;;;;;;;;14.10;75.02;100872.92;1392110;88;20375;-91
2021/10/05 01:40:30;;;;;;;;;;;;;;;14.06;74.99;100871.55;1392088;88;20279;-90
2021/10/05 01:42:56;;;;;;;;;;;;;;;14.03;74.37;100879.86;1392151;88;20272;-90
2021/10/05 01:45:23;;;;;;;;;;;;;;;14.00;73.59;100879.17;1392032;89;20263;-88
2021/10/05 01:47:48;;;;;;;;;;;;;;;13.98;74.74;100883.84;1392079;88;20360;-89
2021/10/05 01:50:14;;;;;;;;;;;;;;;13.91;75.67;100880.13;1393201;88;20316;-89
2021/10/05 01:52:40;;;;;;;;;;;;;;;13.86;75.97;100882.42;1411371;87;20820;-88
2021/10/05 01:55:08;;;;;;;;;;;;;;;13.81;76.33;100879.42;1411852;87;20330;-90
2021/10/05 01:57:34;;;;;;;;;;;;;;;13.77;76.50;100878.05;1411036;87;20270;-89
2021/10/05 01:59:59;;;;;;;;;;;;;;;13.73;75.62;100880.70;1411519;87;20262;-90
2021/10/05 02:02:26;;;;;;;;;;;;;;;13.69;75.24;100878.00;1411698;86;20268;-90
2021/10/05 02:04:52;;;;;;;;;;;;;;;13.66;76.10;100886.30;1411411;87;20699;-91
2021/10/05 02:07:18;;;;;;;;;;;;;;;13.63;75.71;100887.94;1411580;87;20269;-90
2021/10/05 02:09:47;;;;;;;;;;;;;;;13.58;76.71;100883.58;1411326;87;20314;-90
2021/10/05 02:12:12;;;;;;;;;;;;;;;13.54;77.37;100887.87;1411637;87;20277;-91
2021/10/05 02:14:38;;;;;;;;;;;;;;;13.49;77.77;100888.86;1411568;87;20381;-89
2021/10/05 02:17:04;;;;;;;;;;;;;;;13.44;78.57;100886.33;1411586;87;20336;-90
2021/10/05 02:19:30;;;;;;;;;;;;;;;13.36;78.66;100888.42;1411590;87;20269;-89
2021/10/05 02:21:55;;;;;;;;;;;;;;;13.33;77.98;100884.75;1411842;87;20285;-89
2021/10/05 02:26:52;;;;;;;;;;;;;;;13.36;76.71;100891.08;1411394;87;20328;-89
2021/10/05 02:29:20;;;;;;;;;;;;;;;13.40;77.29;100887.11;1411593;87;20783;-87
2021/10/05 02:31:46;;;;;;;;;;;;;;;13.44;76.79;100890.32;1411507;87;20306;-90
2021/10/05 02:34:13;;;;;;;;;;;;;;;13.49;76.15;100888.86;1411475;87;20300;-90
2021/10/05 02:36:40;;;;;;;;;;;;;;;13.57;75.92;100895.22;1411531;87;20388;-92
2021/10/05 02:39:06;;;;;;;;;;;;;;;13.63;75.98;100900.73;1411965;87;20306;-90
2021/10/05 02:41:32;;;;;;;;;;;;;;;13.69;75.97;100891.30;1411568;87;20277;-89
2021/10/05 02:43:58;;;;;;;;;;;;;;;13.73;76.06;100888.19;1412171;87;20261;-88
2021/10/05 02:46:24;;;;;;;;;;;;;;;13.75;75.87;100896.85;1411607;87;20277;-88
2021/10/05 02:48:50;;;;;;;;;;;;;;;13.76;76.65;100897.17;1411716;87;20276;-89
2021/10/05 02:51:16;;;;;;;;;;;;;;;13.76;76.98;100901.67;1411554;87;20262;-88
2021/10/05 02:53:42;;;;;;;;;;;;;;;13.69;77.33;100907.26;1411770;87;20318;-90
2021/10/05 02:56:08;;;;;;;;;;;;;;;13.65;76.97;100896.61;1412207;87;20306;-90
2021/10/05 02:58:33;;;;;;;;;;;;;;;13.62;77.26;100907.56;1411590;87;20269;-90
2021/10/05 03:00:59;;;;;;;;;;;;;;;13.59;76.53;100903.38;1411785;87;20254;-90
2021/10/05 03:03:25;;;;;;;;;;;;;;;13.57;76.88;100906.69;1412102;86;20337;-90
2021/10/05 03:05:51;;;;;;;;;;;;;;;13.54;76.87;100906.50;1412098;87;20349;-90
2021/10/05 03:08:17;;;;;;;;;;;;;;;13.51;77.45;100906.80;1411642;87;20343;-89
2021/10/05 03:10:43;;;;;;;;;;;;;;;13.46;78.29;100899.78;1411836;87;20269;-89
2021/10/05 03:13:09;;;;;;;;;;;;;;;13.42;77.74;100902.42;1411943;87;20359;-89
2021/10/05 03:15:35;;;;;;;;;;;;;;;13.38;78.50;100895.76;1411515;87;20269;-89
2021/10/05 03:18:01;;;;;;;;;;;;;;;13.32;79.14;100900.34;1411707;87;21164;-90
2021/10/05 03:20:27;;;;;;;;;;;;;;;13.26;78.54;100903.14;1411735;87;20277;-90
2021/10/05 03:22:53;;;;;;;;;;;;;;;13.23;78.32;100902.56;1412334;87;20261;-91
2021/10/05 03:25:19;;;;;;;;;;;;;;;13.20;78.89;100906.85;1412093;87;20850;-91
2021/10/05 03:27:44;;;;;;;;;;;;;;;13.16;78.53;100901.02;1411861;87;20277;-91
2021/10/05 03:30:11;;;;;;;;;;;;;;;13.16;78.14;100900.19;1412310;87;20269;-90
2021/10/05 03:32:37;;;;;;;;;;;;;;;13.14;78.92;100900.83;1412146;87;20313;-91
2021/10/05 03:35:04;;;;;;;;;;;;;;;13.12;78.92;100896.14;1411789;87;20766;-89
2021/10/05 03:37:30;;;;;;;;;;;;;;;13.14;79.42;100895.51;1411821;87;20337;-88
2021/10/05 03:39:56;;;;;;;;;;;;;;;13.15;79.29;100890.52;1412092;87;20269;-90
2021/10/05 03:42:22;;;;;;;;;;;;;;;13.16;78.19;100882.91;1411730;87;20314;-89
2021/10/05 03:44:48;;;;;;;;;;;;;;;13.19;78.56;100878.62;1411513;87;20269;-88
2021/10/05 03:47:13;;;;;;;;;;;;;;;13.22;79.09;100882.30;1411881;87;20834;-92
2021/10/05 03:49:39;;;;;;;;;;;;;;;13.22;80.16;100879.64;1411889;87;20262;-93
2021/10/05 03:52:06;;;;;;;;;;;;;;;13.25;78.65;100875.34;1411940;87;20373;-93
2021/10/05 03:54:32;;;;;;;;;;;;;;;13.27;78.54;100874.73;1411968;87;20276;-93
2021/10/05 03:56:59;;;;;;;;;;;;;;;13.29;78.58;100876.72;1399473;88;20807;-92
2021/10/05 03:59:25;;;;;;;;;;;;;;;13.30;78.24;100883.23;1411976;87;20284;-91
2021/10/05 04:01:51;;;;;;;;;;;;;;;13.30;78.90;100881.06;1412172;87;20388;-93
2021/10/05 04:04:17;;;;;;;;;;;;;;;13.25;78.93;100876.67;1413684;86;20269;-94
2021/10/05 04:06:43;;;;;;;;;;;;;;;13.19;79.69;100881.27;1415442;87;20268;-95
2021/10/05 04:09:09;;;;;;;;;;;;;;;13.09;80.20;100879.55;1413428;87;20268;-93
2021/10/05 04:11:35;;;;;;;;;;;;;;;13.02;80.00;100881.63;1412078;87;20841;-93
2021/10/05 04:14:02;;;;;;;;;;;;;;;12.93;80.39;100876.73;1411717;87;20261;-92
2021/10/05 04:16:28;;;;;;;;;;;;;;;12.86;80.13;100879.66;1411597;87;20254;-93
2021/10/05 04:18:54;;;;;;;;;;;;;;;12.81;79.95;100879.28;1411446;87;20268;-93
2021/10/05 04:21:20;;;;;;;;;;;;;;;12.74;81.08;100882.17;1399217;88;20270;-92
2021/10/05 04:23:46;;;;;;;;;;;;;;;12.67;81.02;100878.47;1411764;87;20246;-92
2021/10/05 04:26:12;;;;;;;;;;;;;;;12.61;80.53;100883.89;1411772;87;20262;-92
2021/10/05 04:28:38;;;;;;;;;;;;;;;12.56;80.04;100882.99;1413584;87;20276;-92
2021/10/05 04:31:05;;;;;;;;;;;;;;;12.52;78.89;100880.80;1411748;87;20276;-91
2021/10/05 04:33:32;;;;;;;;;;;;;;;12.47;80.44;100877.25;1412110;87;20277;-93
2021/10/05 04:35:58;;;;;;;;;;;;;;;12.41;80.65;100886.65;1411685;87;20713;-92
2021/10/05 04:38:24;;;;;;;;;;;;;;;12.36;81.04;100884.09;1411862;87;20315;-90
2021/10/05 04:40:50;;;;;;;;;;;;;;;12.31;81.21;100883.69;1411543;87;20411;-91
2021/10/05 04:43:16;;;;;;;;;;;;;;;12.25;82.56;100872.34;1411741;87;20789;-88
2021/10/05 04:45:44;;;;;;;;;;;;;;;12.21;82.39;100872.31;1411464;87;20262;-87
2021/10/05 04:48:10;;;;;;;;;;;;;;;12.16;83.00;100878.05;1411596;87;20254;-93
2021/10/05 04:50:36;;;;;;;;;;;;;;;12.14;82.87;100874.23;1413779;87;20277;-94
2021/10/05 04:53:03;;;;;;;;;;;;;;;12.14;82.68;100872.04;1412038;87;20329;-90
2021/10/05 04:55:29;;;;;;;;;;;;;;;12.15;83.32;100876.38;1411945;87;20301;-91
2021/10/05 04:57:55;;;;;;;;;;;;;;;12.14;83.37;100877.34;1410820;87;20341;-90
2021/10/05 05:00:21;;;;;;;;;;;;;;;12.14;83.27;100870.25;1411359;87;20269;-90
2021/10/05 05:02:46;;;;;;;;;;;;;;;12.16;82.97;100865.61;1412794;86;20262;-90
2021/10/05 05:05:13;;;;;;;;;;;;;;;12.21;81.79;100861.70;1419342;86;20722;-90
2021/10/05 05:07:38;;;;;;;;;;;;;;;12.26;81.61;100866.08;1419746;86;20261;-91
2021/10/05 05:10:05;;;;;;;;;;;;;;;12.32;81.35;100876.09;1419645;86;20276;-92
2021/10/05 05:12:31;;;;;;;;;;;;;;;12.34;81.52;100872.78;1419991;86;20246;-93
2021/10/05 05:14:59;;;;;;;;;;;;;;;12.34;80.97;100867.00;1419549;86;20409;-92
2021/10/05 05:17:25;;;;;;;;;;;;;;;12.32;81.14;100862.83;1400479;88;20365;-92
2021/10/05 05:19:51;;;;;;;;;;;;;;;12.31;81.15;100863.29;1419286;86;20254;-92
2021/10/05 05:22:17;;;;;;;;;;;;;;;12.30;81.23;100863.45;1419484;86;20868;-92
2021/10/05 05:24:43;;;;;;;;;;;;;;;12.29;81.13;100864.45;1419363;86;20283;-92
2021/10/05 05:27:09;;;;;;;;;;;;;;;12.26;81.83;100865.58;1419501;87;20275;-91
2021/10/05 05:29:35;;;;;;;;;;;;;;;12.26;81.59;100867.41;1419490;87;20260;-92
2021/10/05 05:32:01;;;;;;;;;;;;;;;12.24;81.91;100868.86;1419283;86;20842;-93
2021/10/05 05:34:27;;;;;;;;;;;;;;;12.31;81.93;100871.75;1419935;86;20261;-93
2021/10/05 05:36:54;;;;;;;;;;;;;;;12.37;82.22;100877.79;1419319;86;21188;-92
2021/10/05 05:39:20;;;;;;;;;;;;;;;12.44;81.61;100876.23;1418843;87;20269;-92
2021/10/05 05:41:46;;;;;;;;;;;;;;;12.50;81.53;100882.27;1400065;88;20254;-92
2021/10/05 05:44:13;;;;;;;;;;;;;;;12.54;81.12;100880.97;1419240;87;20811;-93
2021/10/05 05:46:39;;;;;;;;;;;;;;;12.61;80.94;100886.05;1419379;86;20783;-92
2021/10/05 05:49:05;;;;;;;;;;;;;;;12.71;80.41;100891.28;1419770;86;20253;-93
2021/10/05 05:51:32;;;;;;;;;;;;;;;12.80;80.15;100892.20;1419524;86;20305;-93
2021/10/05 05:53:58;;;;;;;;;;;;;;;12.90;80.26;100902.27;1419946;86;20282;-92
2021/10/05 05:56:24;;;;;;;;;;;;;;;12.96;79.91;100906.15;1419746;86;20775;-93
2021/10/05 05:58:52;;;;;;;;;;;;;;;13.02;79.23;100910.35;1400875;88;20276;-92
2021/10/05 06:01:17;;;;;;;;;;;;;;;13.07;79.15;100920.54;1419743;86;20269;-92
2021/10/05 06:03:46;;;;;;;;;;;;;;;13.16;78.75;100914.80;1417387;86;20340;-92
2021/10/05 06:06:12;;;;;;;;;;;;;;;13.27;78.29;100920.75;1411533;87;20314;-93
2021/10/05 06:08:38;;;;;;;;;;;;;;;13.38;77.67;100925.47;1411658;87;20261;-93
2021/10/05 06:11:04;;;;;;;;;;;;;;;13.49;77.27;100930.08;1411761;87;20268;-93
2021/10/05 06:13:30;;;;;;;;;;;;;;;13.60;76.99;100926.81;1411798;87;20262;-93
2021/10/05 06:15:56;;;;;;;;;;;;;;;13.73;76.74;100936.56;1411765;87;20261;-92
2021/10/05 06:18:22;;;;;;;;;;;;;;;13.84;76.57;100928.33;1411622;87;20313;-92
2021/10/05 06:20:48;;;;;;;;;;;;;;;13.96;76.07;100936.38;1412227;87;20239;-93
2021/10/05 06:23:14;;;;;;;;;;;;;;;14.06;76.10;100942.08;1411640;87;20329;-93
2021/10/05 06:25:41;;;;;;;;;;;;;;;14.13;75.68;100935.16;1411642;87;20255;-93
2021/10/05 06:28:08;;;;;;;;;;;;;;;14.21;75.57;100939.16;1412657;87;20366;-92
2021/10/05 06:30:35;;;;;;;;;;;;;;;14.31;75.09;100939.89;1411774;87;20283;-94
2021/10/05 06:33:00;;;;;;;;;;;;;;;14.36;74.64;100944.25;1411605;87;20358;-93
2021/10/05 06:35:30;;;;;;;;;;;;;;;14.40;74.33;100936.26;1411479;87;20254;-92
2021/10/05 06:37:58;;;;;;;;;;;;;;;14.48;74.39;100945.30;1411455;87;20344;-95
2021/10/05 06:40:25;;;;;;;;;;;;;;;14.55;73.88;100939.68;1411713;87;20314;-93
2021/10/05 06:42:52;;;;;;;;;;;;;;;14.61;73.68;100946.52;1411572;87;20774;-92
2021/10/05 06:45:18;;;;;;;;;;;;;;;14.69;73.67;100943.05;1411795;87;20262;-92
2021/10/05 06:47:44;;;;;;;;;;;;;;;14.76;73.49;100938.77;1411739;87;20269;-93
2021/10/05 06:50:11;;;;;;;;;;;;;;;14.86;73.20;100944.77;1411989;87;20846;-92
2021/10/05 06:52:37;;;;;;;;;;;;;;;14.94;72.23;100944.47;1412439;87;20232;-92
2021/10/05 06:55:04;;;;;;;;;;;;;;;14.96;71.87;100944.64;1411951;87;20828;-94
2021/10/05 06:57:30;;;;;;;;;;;;;;;15.01;72.35;100951.63;1411721;87;20261;-93
2021/10/05 06:59:56;;;;;;;;;;;;;;;15.08;72.29;100950.49;1411600;87;20261;-93
2021/10/05 07:02:22;;;;;;;;;;;;;;;15.14;71.79;100944.50;1411721;87;20269;-93
2021/10/05 07:04:48;;;;;;;;;;;;;;;15.19;71.83;100946.17;1417275;86;20268;-91
2021/10/05 07:07:15;;;;;;;;;;;;;;;15.28;71.86;100955.84;1419718;86;20291;-93
2021/10/05 07:09:41;;;;;;;;;;;;;;;15.34;71.62;100953.84;1419538;86;20365;-94
2021/10/05 07:12:07;;;;;;;;;;;;;;;15.44;71.48;100951.52;1419513;86;20254;-93
2021/10/05 07:14:33;;;;;;;;;;;;;;;15.51;71.26;100945.86;1419644;86;20291;-94
2021/10/05 07:17:01;;;;;;;;;;;;;;;15.59;71.11;100941.83;1419724;86;20424;-94
2021/10/05 07:19:27;;;;;;;;;;;;;;;15.68;70.47;100934.20;1419858;86;20351;-95
2021/10/05 07:21:53;;;;;;;;;;;;;;;15.78;70.04;100938.84;1419585;86;20720;-94
2021/10/05 07:24:19;;;;;;;;;;;;;;;15.88;70.09;100932.01;1419365;87;20261;-93
2021/10/05 07:26:45;;;;;;;;;;;;;;;15.98;69.67;100933.14;1419703;86;20245;-93
2021/10/05 07:29:12;;;;;;;;;;;;;;;16.05;69.28;100930.11;1419299;87;20291;-93
2021/10/05 07:31:38;;;;;;;;;;;;;;;16.16;70.00;100928.41;1419505;87;20306;-94
2021/10/05 07:34:05;;;;;;;;;;;;;;;16.25;69.25;100921.20;1419765;87;20283;-94
2021/10/05 07:36:31;;;;;;;;;;;;;;;16.39;69.25;100932.49;1419896;86;20879;-96
2021/10/05 07:38:56;;;;;;;;;;;;;;;16.55;68.66;100928.94;1419879;87;20246;-92
2021/10/05 07:41:23;;;;;;;;;;;;;;;16.68;67.52;100929.18;1419672;86;20354;-93
2021/10/05 07:43:49;;;;;;;;;;;;;;;16.81;66.37;100933.17;1420164;87;20275;-93
2021/10/05 07:46:16;;;;;;;;;;;;;;;16.94;66.75;100928.06;1419356;87;20344;-93
2021/10/05 07:48:43;;;;;;;;;;;;;;;17.08;66.49;100930.48;1419859;86;20394;-92
2021/10/05 07:51:09;;;;;;;;;;;;;;;17.29;67.54;100928.48;1419546;86;20246;-92
2021/10/05 07:53:35;;;;;;;;;;;;;;;17.45;67.21;100921.67;1419722;86;20366;-93
2021/10/05 07:56:03;;;;;;;;;;;;;;;17.59;65.54;100914.19;1419689;86;20759;-94
2021/10/05 07:58:29;;;;;;;;;;;;;;;17.74;65.26;100918.73;1419876;86;20366;-93
2021/10/05 08:00:54;;;;;;;;;;;;;;;17.85;64.75;100916.98;1419390;87;20284;-93
2021/10/05 08:03:20;;;;;;;;;;;;;;;17.99;64.52;100920.69;1419638;86;20284;-93
2021/10/05 08:05:46;;;;;;;;;;;;;;;18.02;64.18;100916.30;1419777;86;20358;-94
2021/10/05 08:08:12;;;;;;;;;;;;;;;17.95;62.07;100915.36;1419721;86;20261;-93
2021/10/05 08:10:41;;;;;;;;;;;;;;;18.00;62.95;100917.81;1419713;86;20276;-93
2021/10/05 08:13:07;;;;;;;;;;;;;;;18.12;62.27;100915.50;1419579;87;20276;-93
2021/10/05 08:15:33;;;;;;;;;;;;;;;18.28;62.44;100907.79;1419962;86;20247;-92
2021/10/05 08:18:00;;;;;;;;;;;;;;;18.32;61.03;100906.90;1421009;86;20275;-93
2021/10/05 08:20:26;;;;;;;;;;;;;;;18.38;62.18;100907.48;1420960;86;20305;-95
2021/10/05 08:22:53;;;;;;;;;;;;;;;18.46;62.07;100908.21;1423046;86;20276;-95
2021/10/05 08:25:19;;;;;;;;;;;;;;;18.60;60.75;100905.70;1422976;86;20276;-96
2021/10/05 08:27:47;;;;;;;;;;;;;;;18.64;58.46;100905.15;1422902;86;20283;-92
2021/10/05 08:30:14;;;;;;;;;;;;;;;18.98;61.10;100905.52;1419572;87;20254;-90
2021/10/05 08:32:41;;;;;;;;;;;;;;;19.08;56.51;100909.55;1419606;86;20863;-91
2021/10/05 08:35:08;;;;;;;;;;;;;;;19.47;59.81;100918.14;1417105;86;20276;-91
2021/10/05 08:37:34;;;;;;;;;;;;;;;19.77;59.59;100907.56;1406832;86;20284;-91
2021/10/05 08:40:00;;;;;;;;;;;;;;;20.03;56.64;100899.36;1408081;86;20278;-91
2021/10/05 08:42:27;;;;;;;;;;;;;;;20.07;57.25;100899.27;1408565;88;20843;-91
2021/10/05 08:44:53;;;;;;;;;;;;;;;20.15;57.86;100900.45;1410420;86;20308;-91
2021/10/05 08:47:19;;;;;;;;;;;;;;;20.35;57.06;100892.48;1410572;86;20253;-91
2021/10/05 08:49:46;;;;;;;;;;;;;;;20.58;56.46;100890.84;1392702;88;20366;-90
2021/10/05 08:52:13;;;;;;;;;;;;;;;20.64;54.27;100885.99;1408886;87;20892;-91
2021/10/05 08:54:40;;;;;;;;;;;;;;;20.76;53.68;100887.57;1395074;89;20247;-91
2021/10/05 08:57:06;;;;;;;;;;;;;;;20.90;53.35;100893.30;1414994;87;20775;-91
2021/10/05 08:59:33;;;;;;;;;;;;;;;21.12;54.61;100884.53;1391682;89;20286;-91
2021/10/05 09:01:59;;;;;;;;;;;;;;;21.32;52.92;100891.77;1395590;88;20406;-92
2021/10/05 09:04:26;;;;;;;;;;;;;;;21.46;51.87;100881.86;1404102;87;20305;-92
2021/10/05 09:06:54;;;;;;;;;;;;;;;21.53;51.46;100888.08;1411260;87;20277;-90
2021/10/05 09:09:20;;;;;;;;;;;;;;;21.81;52.20;100883.80;1411760;87;20841;-90
2021/10/05 09:11:49;;;;;;;;;;;;;;;21.85;49.71;100883.67;1399002;88;20262;-91
2021/10/05 09:14:15;;;;;;;;;;;;;;;22.07;51.32;100878.34;1401388;87;20257;-92
2021/10/05 09:16:43;;;;;;;;;;;;;;;22.33;49.92;100883.84;1398273;87;20278;-90
2021/10/05 09:19:13;;;;;;;;;;;;;;;22.61;48.69;100879.47;1404065;88;20313;-91
2021/10/05 09:21:45;;;;;;;;;;;;;;;23.04;50.11;100882.86;1392978;87;20264;-91
2021/10/05 09:24:32;;;;;;;;;;;;;;;23.36;46.95;100881.79;1392211;89;20726;-91
2021/10/05 09:26:59;;;;;;;;;;;;;;;23.57;44.93;100877.03;1392078;88;20271;-93
2021/10/05 09:29:31;;;;;;;;;;;;;;;23.81;46.75;100872.13;1392178;88;20302;-92
2021/10/05 09:32:14;;;;;;;;;;;;;;;24.24;46.51;100872.56;1380978;90;20831;-91
2021/10/05 09:34:50;;;;;;;;;;;;;;;24.14;42.00;100873.64;1392231;88;20797;-93
2021/10/05 09:37:30;;;;;;;;;;;;;;;24.48;43.23;100879.47;1402131;88;20900;-91
2021/10/05 09:40:03;;;;;;;;;;;;;;;24.41;40.71;100874.66;1399414;87;20851;-92
2021/10/05 09:42:32;;;;;;;;;;;;;;;24.75;43.03;100874.00;1395736;87;20369;-92
2021/10/05 09:45:00;;;;;;;;;;;;;;;24.93;41.42;100870.92;1388193;88;20279;-92
2021/10/05 09:47:35;;;;;;;;;;;;;;;25.31;41.29;100865.66;1398826;88;20254;-92
2021/10/05 09:50:03;;;;;;;;;;;;;;;25.14;40.71;100861.45;1411299;87;20359;-93
2021/10/05 09:52:47;;;;;;;;;;;;;;;25.39;41.32;100854.47;1392110;88;20243;-91
2021/10/05 09:55:15;;;;;;;;;;;;;;;25.32;40.13;100857.81;1392693;88;20367;-92
2021/10/05 09:57:41;;;;;;;;;;;;;;;25.32;41.85;100856.45;1392201;88;20807;-92
2021/10/05 10:00:10;;;;;;;;;;;;;;;25.31;40.71;100857.52;1395451;88;20294;-92
2021/10/05 10:02:37;;;;;;;;;;;;;;;25.57;40.76;100853.52;1399994;88;20272;-91
2021/10/05 10:05:06;;;;;;;;;;;;;;;25.71;40.00;100852.75;1402562;87;20347;-92
2021/10/05 10:07:33;;;;;;;;;;;;;;;25.75;40.03;100861.53;1399267;88;20262;-92
2021/10/05 10:10:00;;;;;;;;;;;;;;;26.04;40.28;100857.03;1395921;88;20262;-91
2021/10/05 10:12:26;;;;;;;;;;;;;;;25.77;39.95;100850.44;1394899;87;20301;-92
2021/10/05 10:14:53;;;;;;;;;;;;;;;25.84;39.56;100850.64;1408209;88;20254;-92
2021/10/05 10:17:24;;;;;;;;;;;;;;;26.11;38.35;100856.88;1411716;87;20262;-92
2021/10/05 10:19:51;;;;;;;;;;;;;;;26.26;38.23;100853.64;1411082;87;20783;-92
2021/10/05 10:22:17;;;;;;;;;;;;;;;26.30;36.71;100853.47;1383082;90;20268;-91
2021/10/05 10:24:45;;;;;;;;;;;;;;;26.34;37.19;100853.27;1411629;87;20315;-91
2021/10/05 10:27:11;;;;;;;;;;;;;;;26.47;38.95;100858.92;1404742;87;20307;-92
2021/10/05 10:29:38;;;;;;;;;;;;;;;26.53;36.71;100853.95;1397808;87;20369;-92
2021/10/05 10:32:13;;;;;;;;;;;;;;;26.64;37.75;100851.67;1410211;88;20269;-91
2021/10/05 10:34:39;;;;;;;;;;;;;;;26.68;37.54;100861.53;1399429;88;20359;-92
2021/10/05 10:37:14;;;;;;;;;;;;;;;26.72;38.80;100861.33;1411560;87;20351;-92
2021/10/05 10:39:40;;;;;;;;;;;;;;;26.63;36.77;100860.90;1399187;89;20819;-94
2021/10/05 10:42:07;;;;;;;;;;;;;;;26.78;37.20;100854.37;1396385;87;20349;-91
2021/10/05 10:44:37;;;;;;;;;;;;;;;26.45;36.43;100857.01;1407697;89;20305;-89
2021/10/05 10:47:17;;;;;;;;;;;;;;;26.58;38.07;100853.20;1401935;87;20309;-91
2021/10/05 10:50:00;;;;;;;;;;;;;;;26.59;35.97;100853.50;1394023;90;20335;-91
2021/10/05 10:52:28;;;;;;;;;;;;;;;26.68;37.03;100850.14;1397998;88;20377;-91
2021/10/05 10:54:56;;;;;;;;;;;;;;;26.73;37.59;100854.84;1412365;87;20328;-95
2021/10/05 10:57:37;;;;;;;;;;;;;;;26.94;35.86;100849.23;1415489;87;20745;-96
2021/10/05 11:00:16;;;;;;;;;;;;;;;26.94;35.08;100839.72;1415220;87;20374;-96
2021/10/05 11:02:50;;;;;;;;;;;;;;;27.07;36.25;100838.55;1416706;87;20203;-96
2021/10/05 11:05:21;;;;;;;;;;;;;;;27.01;35.66;100845.26;1405405;87;20269;-95
2021/10/05 11:07:45;;;;;;;;;;;;;;;26.91;35.87;100839.67;1419244;87;20261;-96
2021/10/05 11:10:11;;;;;;;;;;;;;;;26.87;35.49;100832.25;1418797;87;20351;-96
2021/10/05 11:12:49;;;;;;;;;;;;;;;26.87;35.22;100833.07;1419058;87;20269;-96
2021/10/05 11:15:15;;;;;;;;;;;;;;;26.45;35.25;100831.23;1417259;87;20313;-95
2021/10/05 11:17:44;;;;;;;;;;;;;;;26.96;36.75;100828.91;1403300;87;21302;-95
2021/10/05 11:20:09;;;;;;;;;;;;;;;27.04;35.37;100825.47;1397907;89;20867;-96
2021/10/05 11:22:35;;;;;;;;;;;;;;;26.99;35.56;100822.16;1398569;88;20271;-96
2021/10/05 11:25:02;;;;;;;;;;;;;;;26.81;35.51;100816.95;1408158;87;20376;-95
2021/10/05 11:27:29;;;;;;;;;;;;;;;27.21;34.93;100815.45;1412232;87;20753;-94
2021/10/05 11:30:05;;;;;;;;;;;;;;;27.33;35.09;100814.80;1403035;87;20279;-96
2021/10/05 11:32:32;;;;;;;;;;;;;;;27.51;35.49;100806.11;1403487;88;20247;-95
2021/10/05 11:34:59;;;;;;;;;;;;;;;27.55;35.02;100816.76;1401678;87;20294;-96
2021/10/05 11:37:25;;;;;;;;;;;;;;;27.50;33.56;100809.88;1398910;88;20361;-96
2021/10/05 11:39:52;;;;;;;;;;;;;;;27.79;34.92;100806.48;1386564;89;20254;-95
2021/10/05 11:42:20;;;;;;;;;;;;;;;28.20;34.31;100792.02;1383905;88;20435;-95
2021/10/05 11:44:52;;;;;;;;;;;;;;;28.13;34.04;100790.84;1398486;88;20792;-96
2021/10/05 11:47:20;;;;;;;;;;;;;;;28.20;33.47;100779.23;1397987;88;20871;-96
2021/10/05 11:49:49;;;;;;;;;;;;;;;27.86;32.46;100775.31;1403983;88;20305;-95
2021/10/05 11:52:18;;;;;;;;;;;;;;;28.10;33.30;100766.88;1397386;87;20271;-94
2021/10/05 11:54:45;;;;;;;;;;;;;;;28.14;33.15;100759.86;1406371;89;20284;-95
2021/10/05 11:57:13;;;;;;;;;;;;;;;28.11;32.65;100760.38;1401590;87;20353;-96
2021/10/05 11:59:39;;;;;;;;;;;;;;;27.98;32.01;100759.40;1397732;88;20271;-96
2021/10/05 12:02:08;;;;;;;;;;;;;;;28.35;32.56;100764.41;1397864;88;20294;-95
2021/10/05 12:04:35;;;;;;;;;;;;;;;28.55;31.67;100762.99;1379989;89;20294;-95
2021/10/05 12:07:13;;;;;;;;;;;;;;;28.46;31.66;100755.84;1381743;90;20362;-96
2021/10/05 12:09:40;;;;;;;;;;;;;;;28.90;31.84;100762.45;1384451;90;20257;-95
2021/10/05 12:12:17;;;;;;;;;;;;;;;29.11;31.07;100749.80;1400101;89;20279;-96
2021/10/05 12:14:46;;;;;;;;;;;;;;;29.26;30.69;100755.06;1416497;87;20269;-96
2021/10/05 12:17:17;;;;;;;;;;;;;;;29.18;30.85;100759.13;1413950;87;20767;-95
2021/10/05 12:19:49;;;;;;;;;;;;;;;29.25;29.67;100752.89;1402009;87;20381;-95
2021/10/05 12:22:21;;;;;;;;;;;;;;;29.64;30.05;100747.12;1396271;88;20364;-94
2021/10/05 12:25:08;;;;;;;;;;;;;;;29.61;29.28;100742.17;1413106;87;20246;-93
2021/10/05 12:27:37;;;;;;;;;;;;;;;29.76;27.86;100742.24;1408389;87;20301;-95
2021/10/05 12:30:15;;;;;;;;;;;;;;;29.63;27.34;100742.19;1393034;90;20276;-94
2021/10/05 12:32:50;;;;;;;;;;;;;;;29.52;27.80;100741.86;1399824;89;20314;-96
2021/10/05 12:35:38;;;;;;;;;;;;;;;29.60;28.15;100733.69;1403249;87;20272;-96
2021/10/05 12:38:19;;;;;;;;;;;;;;;29.52;28.95;100730.95;1394018;89;20323;-96